TRA7WA EHBK-EHRD
Flight info
| Callsign | TRA7WA |
|---|---|
| Flight time | 0h 27m |
| Altitude | 6000 |
| Route | OSGOS P57 INKET |
| Aircraft | A320/M-SDE3FGHIRWY/LB1 |
Departure
| Time | 2026-05-07 15:03 |
|---|---|
| Airport | Maastricht Aachen Airport (EHBK) |
Arrival
| Time | 2026-05-07 15:31 |
|---|---|
| Airport | Rotterdam The Hague Airport (EHRD) |
| Time | Latitude | Longitude | Altitude | Speed | Heading |
|---|---|---|---|---|---|
| 2026-05-07 14:31 | 50.91473 | 5.76903 | 383 ft | 0 kts | 348° |
| 2026-05-07 14:54 | 50.91460 | 5.76912 | 382 ft | 2 kts | 313° |
| 2026-05-07 14:54 | 50.91451 | 5.76933 | 382 ft | 2 kts | 274° |
| 2026-05-07 14:55 | 50.91452 | 5.76959 | 382 ft | 2 kts | 246° |
| 2026-05-07 14:55 | 50.91459 | 5.76980 | 382 ft | 1 kts | 221° |
| 2026-05-07 14:55 | 50.91462 | 5.76984 | 383 ft | 0 kts | 214° |
| 2026-05-07 14:55 | 50.91460 | 5.76982 | 383 ft | 0 kts | 216° |
| 2026-05-07 14:58 | 50.91459 | 5.76981 | 383 ft | 1 kts | 216° |
| 2026-05-07 14:58 | 50.91449 | 5.76971 | 382 ft | 3 kts | 210° |
| 2026-05-07 14:59 | 50.91401 | 5.76923 | 382 ft | 13 kts | 213° |
| 2026-05-07 14:59 | 50.91309 | 5.76830 | 382 ft | 17 kts | 212° |
| 2026-05-07 14:59 | 50.91230 | 5.76751 | 382 ft | 9 kts | 212° |
| 2026-05-07 14:59 | 50.91170 | 5.76763 | 382 ft | 8 kts | 126° |
| 2026-05-07 15:00 | 50.91160 | 5.76787 | 382 ft | 4 kts | 123° |
| 2026-05-07 15:00 | 50.91126 | 5.76869 | 381 ft | 14 kts | 123° |
| 2026-05-07 15:00 | 50.91020 | 5.76857 | 381 ft | 24 kts | 208° |
| 2026-05-07 15:00 | 50.90866 | 5.76712 | 382 ft | 27 kts | 212° |
| 2026-05-07 15:01 | 50.90708 | 5.76549 | 384 ft | 29 kts | 212° |
| 2026-05-07 15:01 | 50.90536 | 5.76362 | 384 ft | 31 kts | 215° |
| 2026-05-07 15:01 | 50.90353 | 5.76164 | 382 ft | 29 kts | 213° |
| 2026-05-07 15:01 | 50.90181 | 5.75990 | 383 ft | 30 kts | 210° |
| 2026-05-07 15:02 | 50.90067 | 5.75828 | 384 ft | 13 kts | 251° |
| 2026-05-07 15:02 | 50.90007 | 5.75797 | 385 ft | 12 kts | 126° |
| 2026-05-07 15:02 | 50.90052 | 5.75875 | 385 ft | 11 kts | 19° |
| 2026-05-07 15:02 | 50.90072 | 5.75893 | 384 ft | 3 kts | 31° |
| 2026-05-07 15:03 | 50.90159 | 5.75980 | 383 ft | 44 kts | 33° |
| 2026-05-07 15:03 | 50.90633 | 5.76459 | 385 ft | 113 kts | 32° |
| 2026-05-07 15:03 | 50.91441 | 5.77266 | 505 ft | 150 kts | 32° |
| 2026-05-07 15:03 | 50.92276 | 5.78234 | 1149 ft | 149 kts | 42° |
| 2026-05-07 15:04 | 50.93015 | 5.79404 | 1799 ft | 153 kts | 45° |
| 2026-05-07 15:04 | 50.93761 | 5.80770 | 2124 ft | 176 kts | 58° |
| 2026-05-07 15:04 | 50.94237 | 5.82699 | 2472 ft | 200 kts | 71° |
| 2026-05-07 15:04 | 50.94707 | 5.84909 | 2855 ft | 223 kts | 70° |
| 2026-05-07 15:05 | 50.95241 | 5.87334 | 3320 ft | 248 kts | 70° |
| 2026-05-07 15:05 | 50.95833 | 5.89984 | 4147 ft | 259 kts | 70° |
| 2026-05-07 15:05 | 50.96460 | 5.92683 | 5165 ft | 263 kts | 65° |
| 2026-05-07 15:05 | 50.97605 | 5.94975 | 5802 ft | 270 kts | 34° |
| 2026-05-07 15:06 | 50.99350 | 5.95939 | 6004 ft | 269 kts | 2° |
| 2026-05-07 15:06 | 51.01219 | 5.95809 | 6056 ft | 269 kts | 353° |
| 2026-05-07 15:06 | 51.03067 | 5.95344 | 6053 ft | 269 kts | 349° |
| 2026-05-07 15:06 | 51.04902 | 5.94794 | 6056 ft | 268 kts | 349° |
| 2026-05-07 15:07 | 51.06742 | 5.94255 | 6060 ft | 269 kts | 350° |
| 2026-05-07 15:07 | 51.08582 | 5.93759 | 6060 ft | 268 kts | 351° |
| 2026-05-07 15:07 | 51.10419 | 5.93306 | 6058 ft | 268 kts | 352° |
| 2026-05-07 15:07 | 51.12261 | 5.92883 | 6055 ft | 268 kts | 352° |
| 2026-05-07 15:08 | 51.14088 | 5.92484 | 6057 ft | 268 kts | 352° |
| 2026-05-07 15:08 | 51.15939 | 5.92089 | 6056 ft | 268 kts | 353° |
| 2026-05-07 15:08 | 51.17784 | 5.91701 | 6059 ft | 268 kts | 353° |
| 2026-05-07 15:08 | 51.19632 | 5.91313 | 6057 ft | 268 kts | 353° |
| 2026-05-07 15:09 | 51.21479 | 5.90924 | 6064 ft | 268 kts | 353° |
| 2026-05-07 15:09 | 51.23312 | 5.90377 | 6060 ft | 268 kts | 342° |
| 2026-05-07 15:09 | 51.24981 | 5.89057 | 6064 ft | 269 kts | 325° |
| 2026-05-07 15:09 | 51.26338 | 5.87017 | 6064 ft | 270 kts | 308° |
| 2026-05-07 15:10 | 51.27410 | 5.84559 | 6064 ft | 270 kts | 305° |
| 2026-05-07 15:10 | 51.28475 | 5.82093 | 6066 ft | 270 kts | 305° |
| 2026-05-07 15:10 | 51.29548 | 5.79622 | 6066 ft | 270 kts | 305° |
| 2026-05-07 15:10 | 51.30605 | 5.77189 | 6068 ft | 270 kts | 305° |
| 2026-05-07 15:11 | 51.31677 | 5.74720 | 6068 ft | 271 kts | 305° |
| 2026-05-07 15:11 | 51.32747 | 5.72244 | 6071 ft | 271 kts | 305° |
| 2026-05-07 15:11 | 51.33815 | 5.69765 | 6070 ft | 271 kts | 305° |
| 2026-05-07 15:11 | 51.34881 | 5.67290 | 6070 ft | 271 kts | 305° |
| 2026-05-07 15:12 | 51.35944 | 5.64818 | 6073 ft | 271 kts | 305° |
| 2026-05-07 15:12 | 51.37015 | 5.62329 | 6072 ft | 272 kts | 305° |
| 2026-05-07 15:12 | 51.38084 | 5.59847 | 6073 ft | 272 kts | 305° |
| 2026-05-07 15:12 | 51.39156 | 5.57356 | 6073 ft | 271 kts | 305° |
| 2026-05-07 15:13 | 51.40224 | 5.54861 | 6070 ft | 271 kts | 304° |
| 2026-05-07 15:13 | 51.41276 | 5.52398 | 6071 ft | 271 kts | 304° |
| 2026-05-07 15:13 | 51.42339 | 5.49907 | 6070 ft | 272 kts | 304° |
| 2026-05-07 15:13 | 51.43410 | 5.47401 | 6070 ft | 272 kts | 304° |
| 2026-05-07 15:14 | 51.44475 | 5.44904 | 6069 ft | 272 kts | 304° |
| 2026-05-07 15:14 | 51.45540 | 5.42406 | 6068 ft | 272 kts | 304° |
| 2026-05-07 15:14 | 51.46608 | 5.39908 | 6068 ft | 271 kts | 306° |
| 2026-05-07 15:14 | 51.47837 | 5.37607 | 6062 ft | 271 kts | 313° |
| 2026-05-07 15:15 | 51.49103 | 5.35365 | 6062 ft | 272 kts | 313° |
| 2026-05-07 15:15 | 51.50372 | 5.33113 | 6066 ft | 272 kts | 313° |
| 2026-05-07 15:15 | 51.51641 | 5.30856 | 6066 ft | 272 kts | 312° |
| 2026-05-07 15:15 | 51.52908 | 5.28602 | 6072 ft | 272 kts | 312° |
| 2026-05-07 15:16 | 51.54162 | 5.26372 | 6069 ft | 272 kts | 312° |
| 2026-05-07 15:16 | 51.55431 | 5.24115 | 6072 ft | 272 kts | 312° |
| 2026-05-07 15:16 | 51.56701 | 5.21852 | 6075 ft | 272 kts | 312° |
| 2026-05-07 15:16 | 51.57968 | 5.19595 | 6075 ft | 272 kts | 312° |
| 2026-05-07 15:17 | 51.59233 | 5.17331 | 6077 ft | 272 kts | 312° |
| 2026-05-07 15:17 | 51.60495 | 5.15068 | 6080 ft | 272 kts | 312° |
| 2026-05-07 15:17 | 51.61762 | 5.12794 | 6081 ft | 272 kts | 312° |
| 2026-05-07 15:17 | 51.63024 | 5.10525 | 6080 ft | 272 kts | 312° |
| 2026-05-07 15:18 | 51.64289 | 5.08254 | 6081 ft | 272 kts | 312° |
| 2026-05-07 15:18 | 51.65555 | 5.05981 | 6079 ft | 273 kts | 312° |
| 2026-05-07 15:18 | 51.66817 | 5.03700 | 6083 ft | 273 kts | 309° |
| 2026-05-07 15:18 | 51.67781 | 5.01078 | 6082 ft | 273 kts | 295° |
| 2026-05-07 15:19 | 51.68541 | 4.98287 | 6081 ft | 273 kts | 293° |
| 2026-05-07 15:19 | 51.69285 | 4.95464 | 6081 ft | 273 kts | 293° |
| 2026-05-07 15:19 | 51.70016 | 4.92680 | 6014 ft | 272 kts | 293° |
| 2026-05-07 15:19 | 51.70750 | 4.89880 | 5684 ft | 271 kts | 293° |
| 2026-05-07 15:20 | 51.71480 | 4.87084 | 5356 ft | 270 kts | 293° |
| 2026-05-07 15:20 | 51.72205 | 4.84296 | 5034 ft | 269 kts | 293° |
| 2026-05-07 15:20 | 51.72915 | 4.81543 | 4713 ft | 268 kts | 293° |
| 2026-05-07 15:20 | 51.73624 | 4.78781 | 4391 ft | 266 kts | 292° |
| 2026-05-07 15:21 | 51.74329 | 4.76026 | 4084 ft | 264 kts | 292° |
| 2026-05-07 15:21 | 51.75026 | 4.73293 | 3994 ft | 264 kts | 292° |
| 2026-05-07 15:21 | 51.75725 | 4.70546 | 4003 ft | 265 kts | 292° |
| 2026-05-07 15:21 | 51.76426 | 4.67791 | 4005 ft | 265 kts | 292° |
| 2026-05-07 15:22 | 51.77085 | 4.65012 | 4003 ft | 266 kts | 286° |
| 2026-05-07 15:22 | 51.77528 | 4.62152 | 4005 ft | 266 kts | 283° |
| 2026-05-07 15:22 | 51.77935 | 4.59235 | 4008 ft | 266 kts | 283° |
| 2026-05-07 15:22 | 51.78336 | 4.56322 | 4005 ft | 266 kts | 283° |
| 2026-05-07 15:23 | 51.78738 | 4.53396 | 4005 ft | 266 kts | 283° |
| 2026-05-07 15:23 | 51.79139 | 4.50477 | 4008 ft | 266 kts | 282° |
| 2026-05-07 15:23 | 51.79535 | 4.47608 | 4004 ft | 255 kts | 283° |
| 2026-05-07 15:23 | 51.79910 | 4.44897 | 4005 ft | 241 kts | 283° |
| 2026-05-07 15:24 | 51.80279 | 4.42241 | 4007 ft | 245 kts | 283° |
| 2026-05-07 15:24 | 51.80649 | 4.39582 | 4008 ft | 238 kts | 283° |
| 2026-05-07 15:24 | 51.81008 | 4.36995 | 4009 ft | 236 kts | 283° |
| 2026-05-07 15:24 | 51.81368 | 4.34410 | 4012 ft | 236 kts | 283° |
| 2026-05-07 15:25 | 51.81729 | 4.31824 | 4011 ft | 236 kts | 283° |
| 2026-05-07 15:25 | 51.82084 | 4.29268 | 4011 ft | 236 kts | 283° |
| 2026-05-07 15:25 | 51.82447 | 4.26648 | 4010 ft | 236 kts | 283° |
| 2026-05-07 15:25 | 51.82801 | 4.24098 | 4009 ft | 235 kts | 282° |
| 2026-05-07 15:26 | 51.83352 | 4.21629 | 3996 ft | 234 kts | 304° |
| 2026-05-07 15:26 | 51.84552 | 4.19934 | 3712 ft | 230 kts | 338° |
| 2026-05-07 15:26 | 51.86064 | 4.19613 | 3567 ft | 214 kts | 13° |
| 2026-05-07 15:26 | 51.87275 | 4.20825 | 3192 ft | 206 kts | 58° |
| 2026-05-07 15:27 | 51.87634 | 4.22966 | 2941 ft | 193 kts | 87° |
| 2026-05-07 15:27 | 51.87922 | 4.24966 | 2668 ft | 178 kts | 57° |
| 2026-05-07 15:27 | 51.88674 | 4.26438 | 2434 ft | 163 kts | 56° |
| 2026-05-07 15:27 | 51.89251 | 4.27915 | 2249 ft | 146 kts | 57° |
| 2026-05-07 15:28 | 51.89775 | 4.29247 | 2047 ft | 136 kts | 56° |
| 2026-05-07 15:28 | 51.90273 | 4.30501 | 1868 ft | 132 kts | 56° |
| 2026-05-07 15:28 | 51.90769 | 4.31740 | 1684 ft | 131 kts | 55° |
| 2026-05-07 15:28 | 51.91261 | 4.32971 | 1502 ft | 130 kts | 55° |
| 2026-05-07 15:29 | 51.91750 | 4.34190 | 1326 ft | 129 kts | 55° |
| 2026-05-07 15:29 | 51.92240 | 4.35410 | 1153 ft | 129 kts | 55° |
| 2026-05-07 15:29 | 51.92730 | 4.36632 | 981 ft | 130 kts | 54° |
| 2026-05-07 15:29 | 51.93221 | 4.37859 | 787 ft | 130 kts | 54° |
| 2026-05-07 15:30 | 51.93720 | 4.39089 | 634 ft | 132 kts | 53° |
| 2026-05-07 15:30 | 51.94215 | 4.40342 | 421 ft | 132 kts | 54° |
| 2026-05-07 15:30 | 51.94713 | 4.41592 | 250 ft | 132 kts | 53° |
| 2026-05-07 15:30 | 51.95211 | 4.42837 | 53 ft | 131 kts | 53° |
| 2026-05-07 15:31 | 51.95686 | 4.44018 | 2 ft | 109 kts | 56° |
| 2026-05-07 15:31 | 51.95953 | 4.44686 | -1 ft | 45 kts | 56° |
| 2026-05-07 15:31 | 51.96106 | 4.45067 | 2 ft | 31 kts | 60° |
| 2026-05-07 15:31 | 51.96151 | 4.45283 | 2 ft | 18 kts | 104° |
| 2026-05-07 15:32 | 51.96099 | 4.45388 | 1 ft | 7 kts | 151° |
| 2026-05-07 15:32 | 51.96042 | 4.45381 | 3 ft | 10 kts | 215° |
| 2026-05-07 15:32 | 51.95994 | 4.45280 | 2 ft | 13 kts | 239° |
| 2026-05-07 15:32 | 51.95941 | 4.45141 | 1 ft | 16 kts | 231° |
| 2026-05-07 15:33 | 51.95873 | 4.44980 | 1 ft | 19 kts | 237° |
| 2026-05-07 15:33 | 51.95796 | 4.44780 | 1 ft | 23 kts | 238° |
| 2026-05-07 15:33 | 51.95703 | 4.44551 | 2 ft | 26 kts | 237° |
| 2026-05-07 15:33 | 51.95612 | 4.44323 | 1 ft | 22 kts | 237° |
| 2026-05-07 15:34 | 51.95524 | 4.44103 | 1 ft | 25 kts | 236° |
| 2026-05-07 15:34 | 51.95424 | 4.43853 | 1 ft | 24 kts | 237° |
| 2026-05-07 15:34 | 51.95351 | 4.43670 | 1 ft | 18 kts | 236° |
| 2026-05-07 15:34 | 51.95297 | 4.43534 | 1 ft | 13 kts | 237° |
| 2026-05-07 15:35 | 51.95216 | 4.43541 | 2 ft | 15 kts | 147° |
| 2026-05-07 15:35 | 51.95122 | 4.43638 | 1 ft | 16 kts | 147° |
| 2026-05-07 15:35 | 51.95049 | 4.43697 | 3 ft | 10 kts | 185° |
| 2026-05-07 15:35 | 51.95000 | 4.43606 | 1 ft | 12 kts | 242° |
| 2026-05-07 15:36 | 51.94982 | 4.43552 | 1 ft | 2 kts | 277° |
| 2026-05-07 15:36 | 51.95007 | 4.43516 | 1 ft | 7 kts | 324° |
| 2026-05-07 15:36 | 51.95020 | 4.43500 | 1 ft | 0 kts | 324° |